Time;durP1;ratioP1;P1;durP2;ratioP2;P2;SDS_P1;SDS_P2;PMS_P1;PMS_P2;Temp;Humidity;BMP_temperature;BMP_pressure;BME280_temperature;BME280_humidity;BME280_pressure;Samples;Min_cycle;Max_cycle;Signal;HPM_P1;HPM_P2
2023/01/26 00:00:52;;;;;;;52.72;16.35;;;;;;;7.04;45.01;102361.44;5016689;28;20529;-66
2023/01/26 00:03:18;;;;;;;46.85;14.80;;;;;;;7.10;44.82;102366.50;5016898;28;20033;-65
2023/01/26 00:05:44;;;;;;;53.90;16.25;;;;;;;7.12;44.67;102364.63;5015851;28;20042;-65
2023/01/26 00:08:11;;;;;;;50.05;16.00;;;;;;;7.13;44.80;102362.81;4999879;28;20060;-65
2023/01/26 00:10:40;;;;;;;53.67;16.25;;;;;;;7.17;44.49;102346.66;5000248;28;20406;-64
2023/01/26 00:13:06;;;;;;;51.97;16.70;;;;;;;7.16;44.41;102349.34;5000205;28;20042;-65
2023/01/26 00:15:32;;;;;;;44.53;15.18;;;;;;;7.10;45.59;102342.50;5017326;28;20088;-65
2023/01/26 00:17:59;;;;;;;50.95;16.20;;;;;;;7.12;44.76;102347.78;5000356;28;20022;-66
2023/01/26 00:20:24;;;;;;;54.72;17.48;;;;;;;7.08;45.48;102341.72;5017631;28;20034;-65
2023/01/26 00:22:50;;;;;;;48.92;15.68;;;;;;;7.03;45.28;102338.41;4999941;28;20041;-65
2023/01/26 00:25:15;;;;;;;57.05;17.50;;;;;;;7.02;44.53;102347.31;4999330;28;20038;-65
2023/01/26 00:27:41;;;;;;;66.35;18.70;;;;;;;6.98;44.93;102335.94;5015559;28;20124;-66
2023/01/26 00:30:07;;;;;;;60.45;17.83;;;;;;;6.96;44.60;102336.94;4999826;28;20053;-65
2023/01/26 00:32:34;;;;;;;59.13;18.15;;;;;;;7.00;44.36;102338.56;4998563;28;20037;-65
2023/01/26 00:35:00;;;;;;;53.22;16.48;;;;;;;7.04;46.01;102337.47;5016677;28;20052;-66
2023/01/26 00:37:25;;;;;;;67.35;18.20;;;;;;;7.08;44.46;102336.41;5016201;28;20042;-65
2023/01/26 00:39:50;;;;;;;57.30;17.35;;;;;;;7.00;44.38;102306.59;4999461;28;20026;-65
2023/01/26 00:42:16;;;;;;;53.92;16.23;;;;;;;7.06;45.78;102311.63;5017459;28;20042;-65
2023/01/26 00:44:41;;;;;;;60.95;17.40;;;;;;;7.07;44.56;102318.66;5015765;28;20406;-66
2023/01/26 00:47:09;;;;;;;54.22;15.25;;;;;;;7.02;44.81;102310.03;4983120;28;20041;-66
2023/01/26 00:49:34;;;;;;;53.33;16.48;;;;;;;7.00;45.37;102306.59;5016813;28;20042;-66
2023/01/26 00:52:00;;;;;;;54.70;15.68;;;;;;;6.97;45.30;102301.41;5016871;28;20044;-64
2023/01/26 00:54:27;;;;;;;52.65;14.90;;;;;;;6.92;46.05;102303.41;5015303;28;20029;-65
2023/01/26 00:56:52;;;;;;;57.80;16.50;;;;;;;6.94;45.00;102296.22;5017228;28;20033;-65
2023/01/26 00:59:18;;;;;;;60.05;15.75;;;;;;;6.94;44.65;102297.06;5015769;28;20038;-64
2023/01/26 01:01:43;;;;;;;54.83;15.25;;;;;;;6.89;45.84;102282.25;5016892;28;20538;-64
2023/01/26 01:04:09;;;;;;;59.50;17.17;;;;;;;6.94;45.86;102290.88;5016778;28;20038;-64
2023/01/26 01:06:34;;;;;;;53.03;14.10;;;;;;;6.93;45.39;102281.16;5016870;28;20117;-65
2023/01/26 01:09:00;;;;;;;48.97;14.23;;;;;;;6.95;46.11;102281.97;5015605;28;20073;-65
2023/01/26 01:11:26;;;;;;;56.22;16.30;;;;;;;6.96;45.23;102275.69;5015616;28;20112;-64
2023/01/26 01:13:52;;;;;;;43.60;14.43;;;;;;;6.93;46.18;102283.81;5015548;28;20530;-66
2023/01/26 01:16:17;;;;;;;60.08;16.35;;;;;;;6.93;45.94;102273.16;4982734;28;20117;-65
2023/01/26 01:18:43;;;;;;;49.42;15.93;;;;;;;6.92;46.41;102271.44;5016551;28;20038;-65
2023/01/26 01:21:13;;;;;;;49.65;15.30;;;;;;;6.91;46.16;102269.72;5016170;28;20033;-66
2023/01/26 01:23:39;;;;;;;47.42;14.75;;;;;;;6.99;45.65;102264.88;5000497;28;20125;-66
2023/01/26 01:26:06;;;;;;;47.95;16.50;;;;;;;7.01;45.66;102258.56;5014928;28;20066;-65
2023/01/26 01:28:32;;;;;;;43.83;14.40;;;;;;;7.07;45.17;102265.41;4999243;28;20048;-65
2023/01/26 01:30:57;;;;;;;52.33;15.57;;;;;;;7.08;46.01;102264.47;5015011;28;20045;-65
2023/01/26 01:33:23;;;;;;;42.75;14.88;;;;;;;7.10;46.30;102259.94;5017138;28;20033;-66
2023/01/26 01:35:58;;;;;;;44.10;14.82;;;;;;;7.12;45.35;102263.38;5017227;28;20060;-65
2023/01/26 01:38:24;;;;;;;41.50;14.98;;;;;;;7.06;46.12;102246.84;5016399;28;20033;-65
2023/01/26 01:40:49;;;;;;;50.35;15.10;;;;;;;7.11;45.70;102258.13;4998631;28;20041;-66
2023/01/26 01:43:15;;;;;;;50.40;15.65;;;;;;;7.11;44.92;102263.47;5014842;28;20049;-65
2023/01/26 01:45:44;;;;;;;45.47;14.50;;;;;;;7.09;45.99;102255.53;5014803;28;20044;-65
2023/01/26 01:48:37;;;;;;;50.17;15.15;;;;;;;7.07;44.91;102259.19;5015661;28;20053;-65
2023/01/26 01:51:07;;;;;;;48.35;13.68;;;;;;;7.09;45.70;102250.19;5014907;28;20638;-65
2023/01/26 01:53:36;;;;;;;50.83;16.02;;;;;;;7.14;45.20;102256.19;5014505;28;20038;-66
2023/01/26 01:56:09;;;;;;;54.28;15.50;;;;;;;7.20;45.69;102250.59;5015674;28;20076;-65
2023/01/26 01:58:36;;;;;;;48.75;14.60;;;;;;;7.25;45.40;102242.34;4998253;28;20030;-64
2023/01/26 02:01:02;;;;;;;48.80;15.45;;;;;;;7.25;45.62;102240.56;4998205;28;20045;-65
2023/01/26 02:03:28;;;;;;;47.50;14.52;;;;;;;7.33;45.23;102251.72;5006118;28;20050;-65
2023/01/26 02:06:38;;;;;;;46.10;16.15;;;;;;;7.37;45.00;102247.94;5014310;28;20482;-64
2023/01/26 02:09:04;;;;;;;51.17;14.30;;;;;;;7.42;45.28;102234.41;4991205;28;20054;-65
2023/01/26 02:11:38;;;;;;;45.90;14.57;;;;;;;7.42;46.20;102245.94;5014279;28;20045;-65
2023/01/26 02:14:07;;;;;;;44.67;15.13;;;;;;;7.44;45.22;102237.88;4997647;28;20036;-65
2023/01/26 02:16:33;;;;;;;50.17;15.25;;;;;;;7.46;45.32;102235.97;4997782;28;20030;-65
2023/01/26 02:18:59;;;;;;;43.63;14.00;;;;;;;7.46;45.94;102235.97;5014478;28;20391;-66
2023/01/26 02:21:24;;;;;;;54.75;16.55;;;;;;;7.46;45.06;102227.97;5014302;28;20026;-66
2023/01/26 02:24:02;;;;;;;43.20;13.73;;;;;;;7.46;46.05;102236.84;5014256;28;20049;-65
2023/01/26 02:26:37;;;;;;;45.78;16.67;;;;;;;7.43;46.41;102226.34;5015507;28;20040;-64
2023/01/26 02:29:06;;;;;;;43.58;13.55;;;;;;;7.41;45.12;102217.56;5015462;28;20026;-65
2023/01/26 02:31:32;;;;;;;45.95;14.48;;;;;;;7.43;45.92;102222.78;5015268;28;20034;-65
2023/01/26 02:33:57;;;;;;;39.35;14.13;;;;;;;7.40;45.94;102218.47;5014758;28;20056;-65
2023/01/26 02:36:26;;;;;;;51.88;15.68;;;;;;;7.39;46.57;102214.13;4997449;28;20034;-66
2023/01/26 02:39:33;;;;;;;54.03;15.00;;;;;;;7.44;45.58;102227.19;4997553;28;20095;-65
2023/01/26 02:44:43;;;;;;;46.00;12.82;;;;;;;7.45;46.53;102211.13;5013976;28;20092;-65
2023/01/26 02:47:18;;;;;;;54.05;15.45;;;;;;;7.47;45.99;102211.94;5013344;28;20037;-65
2023/01/26 02:49:46;;;;;;;51.90;13.65;;;;;;;7.49;45.89;102209.19;5013502;28;20061;-65
2023/01/26 02:52:13;;;;;;;42.25;12.80;;;;;;;7.52;45.83;102206.34;5013437;28;20041;-66
2023/01/26 02:57:22;;;;;;;46.03;14.68;;;;;;;7.56;45.80;102192.81;5014133;28;20402;-66
2023/01/26 02:59:47;;;;;;;39.25;13.10;;;;;;;7.58;46.39;102201.59;5014478;28;20034;-65
2023/01/26 03:02:13;;;;;;;33.60;12.25;;;;;;;7.53;46.03;102184.09;5012147;28;20477;-65
2023/01/26 03:04:38;;;;;;;50.80;13.93;;;;;;;7.63;46.73;102194.22;5013221;28;20034;-65
2023/01/26 03:07:04;;;;;;;43.00;12.23;;;;;;;7.65;45.91;102195.97;5014630;28;20133;-65
2023/01/26 03:09:29;;;;;;;47.72;14.73;;;;;;;7.65;46.26;102198.63;5005092;28;20182;-66
2023/01/26 03:11:54;;;;;;;46.90;15.70;;;;;;;7.66;45.89;102195.00;5013783;28;20025;-65
2023/01/26 03:14:20;;;;;;;46.03;14.40;;;;;;;7.65;46.26;102193.28;5013031;28;20461;-64
2023/01/26 03:16:45;;;;;;;42.28;12.95;;;;;;;7.65;46.37;102193.28;5013714;28;20514;-65
2023/01/26 03:27:34;;;;;;;43.22;12.20;;;;;;;7.58;46.37;102190.94;5013198;28;20095;-65
2023/01/26 03:30:00;;;;;;;42.15;14.05;;;;;;;7.49;47.05;102174.53;5015517;28;20025;-64
2023/01/26 03:32:25;;;;;;;42.80;12.70;;;;;;;7.58;46.10;102192.72;5014682;28;20038;-65
2023/01/26 03:34:51;;;;;;;50.67;15.02;;;;;;;7.58;46.66;102180.28;5012615;28;20061;-65
2023/01/26 03:37:21;;;;;;;45.67;13.35;;;;;;;7.59;47.04;102184.63;5012945;28;20036;-66
2023/01/26 03:56:20;;;;;;;42.13;12.93;;;;;;;7.79;46.95;102190.81;5013976;28;20101;-65
2023/01/26 03:58:51;;;;;;;40.63;13.10;;;;;;;7.85;46.59;102191.31;5013923;28;20060;-64
2023/01/26 04:01:19;;;;;;;40.97;13.43;;;;;;;7.87;46.79;102185.94;5013386;28;20042;-65
2023/01/26 04:09:17;;;;;;;40.65;13.07;;;;;;;7.91;46.50;102172.34;5013091;28;20115;-65
2023/01/26 04:11:43;;;;;;;39.10;13.05;;;;;;;7.94;47.23;102168.66;5012534;28;20109;-65
2023/01/26 04:22:24;;;;;;;45.20;13.38;;;;;;;7.99;46.22;102183.47;5013434;28;20053;-66
2023/01/26 04:24:50;;;;;;;36.38;13.45;;;;;;;8.03;47.37;102189.53;5013756;28;20026;-65
2023/01/26 04:27:15;;;;;;;34.42;12.45;;;;;;;8.05;47.19;102182.31;5013027;28;20045;-66
2023/01/26 04:29:41;;;;;;;41.13;11.93;;;;;;;8.01;46.75;102167.41;4997667;28;20042;-65
2023/01/26 04:32:06;;;;;;;44.25;13.20;;;;;;;8.09;46.00;102181.22;4998918;28;20038;-65
2023/01/26 04:34:31;;;;;;;48.47;13.18;;;;;;;8.10;46.00;102174.91;5003612;28;20062;-66
2023/01/26 04:36:57;;;;;;;41.97;11.13;;;;;;;8.05;45.95;102163.63;5017099;28;20076;-65
2023/01/26 04:39:22;;;;;;;41.03;11.02;;;;;;;8.08;47.08;102177.69;5017625;28;20038;-65
2023/01/26 04:41:47;;;;;;;49.47;13.18;;;;;;;8.10;47.49;102164.25;5015692;28;20038;-66
2023/01/26 04:44:13;;;;;;;41.28;11.63;;;;;;;8.10;46.47;102158.91;5015856;28;20045;-66
2023/01/26 04:46:38;;;;;;;48.25;12.98;;;;;;;8.08;46.44;102158.13;4999385;28;20203;-65
2023/01/26 04:49:04;;;;;;;37.10;12.68;;;;;;;8.06;46.66;102152.03;5015517;28;20465;-65
2023/01/26 04:51:29;;;;;;;35.83;11.77;;;;;;;8.14;46.19;102157.81;5015887;28;20053;-65
2023/01/26 04:53:55;;;;;;;33.17;11.88;;;;;;;8.11;46.02;102152.63;5016599;28;20029;-65
2023/01/26 04:56:25;;;;;;;31.88;11.43;;;;;;;8.16;47.38;102161.25;5016638;28;20041;-65
2023/01/26 04:58:52;;;;;;;33.20;11.57;;;;;;;8.17;46.16;102154.97;5018318;28;20091;-65
2023/01/26 05:01:18;;;;;;;42.97;13.07;;;;;;;8.16;46.58;102153.25;4999030;28;20467;-65
2023/01/26 05:03:43;;;;;;;43.55;12.15;;;;;;;8.20;46.40;102160.16;4999117;28;20057;-65
2023/01/26 05:06:09;;;;;;;39.70;12.43;;;;;;;8.18;46.64;102151.34;5016295;28;20406;-65
2023/01/26 05:08:35;;;;;;;45.50;13.23;;;;;;;8.23;47.47;102161.81;5017206;28;20058;-65
2023/01/26 05:11:01;;;;;;;35.80;12.63;;;;;;;8.23;46.52;102153.78;4998672;28;20113;-65
2023/01/26 05:13:26;;;;;;;32.75;11.40;;;;;;;8.25;46.67;102162.56;4998795;28;20554;-65
2023/01/26 05:15:51;;;;;;;35.47;11.95;;;;;;;8.25;46.25;102168.78;5016471;28;20129;-65
2023/01/26 05:18:17;;;;;;;35.90;12.15;;;;;;;8.23;46.00;102164.47;5017019;28;20038;-65
2023/01/26 05:20:42;;;;;;;49.45;14.75;;;;;;;8.26;47.00;102165.19;5016327;28;20038;-66
2023/01/26 05:23:08;;;;;;;38.60;11.80;;;;;;;8.25;46.90;102160.78;5014832;28;20038;-65
2023/01/26 05:25:33;;;;;;;34.30;12.95;;;;;;;8.26;47.04;102170.50;4998899;28;20034;-65
2023/01/26 05:27:59;;;;;;;43.70;12.98;;;;;;;8.27;46.45;102166.91;5014945;28;20088;-65
2023/01/26 05:30:24;;;;;;;39.55;12.40;;;;;;;8.25;46.21;102160.78;5015160;28;20375;-65
2023/01/26 05:32:50;;;;;;;45.15;12.88;;;;;;;8.28;46.71;102168.66;4998497;28;20123;-66
2023/01/26 05:35:15;;;;;;;38.38;12.52;;;;;;;8.23;46.55;102150.16;5014813;28;20556;-65
2023/01/26 05:37:41;;;;;;;39.80;13.00;;;;;;;8.27;47.28;102160.69;4999109;28;20050;-66
2023/01/26 05:40:08;;;;;;;46.25;13.90;;;;;;;8.28;47.12;102160.66;5016502;28;20038;-65
2023/01/26 05:42:34;;;;;;;43.90;12.15;;;;;;;8.27;47.21;102161.56;5015404;28;20571;-65
2023/01/26 05:44:59;;;;;;;47.08;12.13;;;;;;;8.25;47.39;102158.09;4998694;28;20034;-65
2023/01/26 05:47:24;;;;;;;43.30;12.57;;;;;;;8.29;46.37;102157.00;5015719;28;20053;-65
2023/01/26 05:49:50;;;;;;;45.22;12.98;;;;;;;8.28;46.54;102163.31;4982497;28;20100;-65
2023/01/26 05:52:17;;;;;;;38.97;12.00;;;;;;;8.28;46.47;102167.78;5013617;28;20044;-65
2023/01/26 05:54:43;;;;;;;45.15;13.00;;;;;;;8.26;47.09;102165.19;4998456;28;20030;-65
2023/01/26 05:57:08;;;;;;;47.80;13.82;;;;;;;8.27;47.43;102166.91;5016121;28;20092;-65
2023/01/26 05:59:34;;;;;;;44.70;11.73;;;;;;;8.27;47.13;102169.59;4998550;28;20434;-64
2023/01/26 06:01:59;;;;;;;44.25;13.45;;;;;;;8.28;47.10;102174.00;4981686;28;20482;-64
2023/01/26 06:04:25;;;;;;;42.08;11.30;;;;;;;8.28;47.11;102167.78;5015145;28;20042;-65
2023/01/26 06:06:55;;;;;;;42.83;12.90;;;;;;;8.31;47.47;102172.97;4997288;28;20033;-65
2023/01/26 06:09:21;;;;;;;35.38;10.40;;;;;;;8.32;46.84;102175.53;4997512;28;20084;-64
2023/01/26 06:11:47;;;;;;;40.78;12.23;;;;;;;8.33;47.40;102177.28;4997255;28;20061;-65
2023/01/26 06:14:12;;;;;;;36.65;12.00;;;;;;;8.34;47.05;102173.66;5014107;28;20034;-65
2023/01/26 06:16:38;;;;;;;37.65;11.30;;;;;;;8.36;47.19;102176.25;5013849;28;20525;-64
2023/01/26 06:19:03;;;;;;;37.97;11.90;;;;;;;8.37;46.40;102189.53;4997815;28;20046;-65
2023/01/26 06:21:30;;;;;;;43.75;12.20;;;;;;;8.37;46.62;102175.31;4997121;28;20129;-65
2023/01/26 06:23:55;;;;;;;37.28;10.65;;;;;;;8.38;46.91;102183.22;5014025;28;20030;-65
2023/01/26 06:26:21;;;;;;;40.20;11.88;;;;;;;8.42;46.81;102191.94;4997421;28;20116;-65
2023/01/26 06:28:47;;;;;;;40.97;12.52;;;;;;;8.43;46.50;102188.34;5015534;28;20438;-65
2023/01/26 06:31:12;;;;;;;46.05;12.68;;;;;;;8.43;47.56;102186.50;5020315;28;20033;-65
2023/01/26 06:33:38;;;;;;;45.80;12.27;;;;;;;8.44;47.05;102190.91;5013620;28;20033;-65
2023/01/26 06:36:11;;;;;;;40.72;13.57;;;;;;;8.44;46.72;102182.03;5015132;28;20026;-65
2023/01/26 06:38:37;;;;;;;47.53;12.38;;;;;;;8.46;46.45;102194.34;5013650;28;20060;-64
2023/01/26 06:41:05;;;;;;;36.80;12.65;;;;;;;8.46;46.58;102190.84;5013402;28;20455;-64
2023/01/26 06:43:34;;;;;;;44.50;12.85;;;;;;;8.46;46.98;102189.00;5012767;28;20038;-64
2023/01/26 06:46:01;;;;;;;47.85;11.82;;;;;;;8.45;46.36;102189.97;5013282;28;20042;-64
2023/01/26 06:48:28;;;;;;;44.17;12.70;;;;;;;8.49;46.77;102191.53;5014154;28;20092;-64
2023/01/26 06:51:02;;;;;;;40.63;10.35;;;;;;;8.52;47.19;102196.69;4997224;28;20474;-64
2023/01/26 06:53:32;;;;;;;35.78;11.45;;;;;;;8.53;47.45;102190.44;5012711;28;20042;-64
2023/01/26 06:55:58;;;;;;;39.83;11.80;;;;;;;8.53;46.56;102189.56;4996098;28;20042;-64
2023/01/26 06:58:23;;;;;;;45.83;12.40;;;;;;;8.55;47.38;102188.53;5013788;28;20096;-65
2023/01/26 07:00:49;;;;;;;42.35;11.93;;;;;;;8.54;46.73;102186.78;4996144;28;20104;-64
2023/01/26 07:03:14;;;;;;;38.38;11.82;;;;;;;8.56;47.35;102192.94;5012464;28;20034;-65
2023/01/26 07:05:39;;;;;;;36.80;11.50;;;;;;;8.55;46.86;102185.84;4995771;28;20129;-64
2023/01/26 07:08:07;;;;;;;47.55;13.48;;;;;;;8.58;47.55;102187.50;4995828;28;20041;-64
2023/01/26 07:10:33;;;;;;;42.92;11.80;;;;;;;8.59;47.73;102194.56;5013122;28;20422;-64
2023/01/26 07:12:58;;;;;;;44.05;14.38;;;;;;;8.59;46.73;102182.09;5013530;28;20037;-64
2023/01/26 07:15:24;;;;;;;34.80;10.82;;;;;;;8.58;46.82;102192.84;5012747;28;20092;-64
2023/01/26 07:17:49;;;;;;;34.53;11.05;;;;;;;8.61;47.94;102192.66;5013358;28;20037;-64
2023/01/26 07:20:15;;;;;;;36.05;11.00;;;;;;;8.60;47.74;102189.13;5017595;28;20484;-64
2023/01/26 07:22:40;;;;;;;39.13;11.52;;;;;;;8.61;47.13;102193.53;5011583;28;20042;-64
2023/01/26 07:25:06;;;;;;;43.30;12.38;;;;;;;8.61;46.52;102192.66;5011811;28;20038;-64
2023/01/26 07:27:31;;;;;;;33.47;9.82;;;;;;;8.62;48.10;102194.41;5011810;28;20406;-64
2023/01/26 07:29:56;;;;;;;40.17;12.13;;;;;;;8.62;46.98;102189.94;5013622;28;20038;-64
2023/01/26 07:32:22;;;;;;;36.45;11.85;;;;;;;8.64;47.60;102198.72;5012296;28;20499;-64
2023/01/26 07:34:47;;;;;;;45.75;12.07;;;;;;;8.64;46.68;102193.38;5012125;28;20038;-63
2023/01/26 07:37:13;;;;;;;27.85;10.60;;;;;;;8.64;46.69;102197.84;5011794;28;20457;-64
2023/01/26 07:39:38;;;;;;;41.05;11.82;;;;;;;8.66;47.40;102199.50;4995330;28;20375;-64
2023/01/26 07:42:04;;;;;;;44.47;10.75;;;;;;;8.66;47.55;102195.94;5013264;28;20371;-63
2023/01/26 07:44:29;;;;;;;39.85;12.98;;;;;;;8.66;46.93;102202.16;5012811;28;20033;-64
2023/01/26 07:46:55;;;;;;;43.25;11.77;;;;;;;8.62;46.63;102197.06;4996438;28;20125;-64
2023/01/26 07:49:20;;;;;;;32.45;9.82;;;;;;;8.64;46.70;102204.06;5015933;28;20049;-64
2023/01/26 07:51:45;;;;;;;37.55;11.40;;;;;;;8.67;46.49;102205.69;5013118;28;20048;-64
2023/01/26 07:54:11;;;;;;;37.88;10.73;;;;;;;8.67;47.47;102211.91;5013322;28;20379;-63
2023/01/26 07:56:37;;;;;;;38.25;11.73;;;;;;;8.70;47.00;102217.09;5011591;28;20038;-64
2023/01/26 07:59:02;;;;;;;28.15;9.48;;;;;;;8.71;46.92;102220.59;5011829;28;20061;-64
2023/01/26 08:01:28;;;;;;;38.72;12.05;;;;;;;8.73;47.63;102222.25;4995301;28;20046;-63
2023/01/26 08:03:53;;;;;;;38.25;10.82;;;;;;;8.74;47.65;102220.44;5013310;28;20038;-64
2023/01/26 08:06:19;;;;;;;37.50;11.57;;;;;;;8.77;47.41;102226.47;5015714;28;20391;-63
2023/01/26 08:08:49;;;;;;;37.60;11.10;;;;;;;8.81;47.50;102231.66;5015432;28;20380;-63
2023/01/26 08:11:17;;;;;;;43.42;11.82;;;;;;;8.83;47.74;102227.94;5015355;28;20117;-63
2023/01/26 08:13:42;;;;;;;36.38;11.00;;;;;;;8.85;47.16;102227.88;5017099;28;20414;-64
2023/01/26 08:16:10;;;;;;;41.83;12.30;;;;;;;8.87;46.95;102232.19;5016767;28;20053;-64
2023/01/26 08:18:43;;;;;;;39.92;12.15;;;;;;;8.88;46.94;102225.06;5015143;28;20030;-65
2023/01/26 08:21:09;;;;;;;36.93;12.27;;;;;;;8.91;47.20;102230.19;5015601;28;20037;-64
2023/01/26 08:23:34;;;;;;;36.67;9.95;;;;;;;8.92;46.75;102227.47;5016317;28;20117;-64
2023/01/26 08:26:05;;;;;;;32.65;10.55;;;;;;;8.94;47.59;102225.56;4998831;28;20121;-64
2023/01/26 08:28:35;;;;;;;30.75;10.93;;;;;;;8.97;46.99;102227.19;4999061;28;20044;-64
2023/01/26 08:31:05;;;;;;;35.10;9.95;;;;;;;8.99;47.45;102228.00;5015323;28;20034;-64
2023/01/26 08:33:31;;;;;;;40.22;11.60;;;;;;;9.00;47.34;102229.69;5016120;28;20034;-64
2023/01/26 08:36:04;;;;;;;33.92;9.38;;;;;;;9.03;47.49;102237.53;5015399;28;20454;-64
2023/01/26 08:38:31;;;;;;;32.70;10.38;;;;;;;9.03;47.34;102234.88;5014747;28;20520;-64
2023/01/26 08:40:57;;;;;;;38.90;10.75;;;;;;;9.05;47.28;102241.84;5015991;28;20038;-63
2023/01/26 08:43:22;;;;;;;33.15;10.52;;;;;;;9.06;46.83;102237.38;5014491;28;20044;-64
2023/01/26 08:45:48;;;;;;;28.73;10.63;;;;;;;9.07;47.41;102239.13;5015955;28;20037;-64
2023/01/26 08:48:13;;;;;;;33.53;10.80;;;;;;;9.08;47.39;102240.81;5016290;28;20378;-65
2023/01/26 08:50:38;;;;;;;35.28;9.93;;;;;;;9.09;47.35;102247.91;5014788;28;20053;-65
2023/01/26 08:53:04;;;;;;;29.55;9.77;;;;;;;9.10;47.00;102238.94;5014717;28;20038;-65
2023/01/26 08:55:31;;;;;;;33.85;9.30;;;;;;;9.12;46.47;102247.75;5014634;28;20520;-64
2023/01/26 08:57:56;;;;;;;33.88;9.35;;;;;;;9.13;46.78;102249.44;5015744;28;20096;-64
2023/01/26 09:00:22;;;;;;;40.33;11.68;;;;;;;9.10;47.25;102238.94;5015593;28;20038;-65
2023/01/26 09:02:48;;;;;;;37.28;10.77;;;;;;;9.15;48.05;102251.09;4998371;28;20053;-64
2023/01/26 09:05:13;;;;;;;33.28;8.75;;;;;;;9.17;47.77;102254.56;5016218;28;20050;-65
2023/01/26 09:07:39;;;;;;;30.50;10.68;;;;;;;9.18;46.98;102248.28;5014770;28;20498;-65
2023/01/26 09:10:05;;;;;;;31.70;9.57;;;;;;;9.19;47.41;102254.44;4997938;28;20099;-64
2023/01/26 09:12:30;;;;;;;31.27;10.80;;;;;;;9.22;47.04;102267.66;5013928;28;20560;-65
2023/01/26 09:14:56;;;;;;;29.52;10.38;;;;;;;9.19;47.48;102255.31;5015813;28;20038;-64
2023/01/26 09:17:21;;;;;;;34.72;10.88;;;;;;;9.23;46.69;102256.88;4997913;28;20034;-65
2023/01/26 09:19:46;;;;;;;34.00;9.23;;;;;;;9.25;47.05;102259.47;5015356;28;20682;-66
2023/01/26 09:22:12;;;;;;;32.10;11.00;;;;;;;9.27;47.40;102257.56;5013995;28;20038;-65
2023/01/26 09:24:37;;;;;;;41.58;9.32;;;;;;;9.27;47.77;102253.06;5015071;28;20042;-64
2023/01/26 09:27:03;;;;;;;31.17;9.85;;;;;;;9.33;47.44;102257.22;4998081;28;20113;-64
2023/01/26 09:29:28;;;;;;;34.58;10.38;;;;;;;9.31;47.88;102248.44;5014863;28;20520;-64
2023/01/26 09:31:54;;;;;;;27.02;10.02;;;;;;;9.32;46.57;102245.66;5013770;28;20073;-65
2023/01/26 09:34:19;;;;;;;23.55;9.32;;;;;;;9.38;47.87;102253.34;5013666;28;20049;-65
2023/01/26 09:36:44;;;;;;;33.15;10.30;;;;;;;9.42;46.96;102248.69;5013788;28;20093;-65
2023/01/26 09:39:10;;;;;;;27.20;9.52;;;;;;;9.48;47.36;102250.16;5013771;28;20473;-64
2023/01/26 09:41:46;;;;;;;29.85;9.82;;;;;;;9.52;47.47;102249.88;4997157;28;20042;-65
2023/01/26 09:44:19;;;;;;;28.52;8.93;;;;;;;9.57;47.05;102258.53;5014810;28;20525;-65
2023/01/26 09:47:00;;;;;;;;;;;;;;;9.60;47.58;102266.38;5014945;28;20042;-64
2023/01/26 09:49:29;;;;;;;33.08;9.73;;;;;;;9.62;46.68;102259.13;5014855;28;19914;-65
2023/01/26 09:52:17;;;;;;;26.63;7.85;;;;;;;9.64;47.32;102249.19;5016191;28;20046;-65
2023/01/26 09:54:50;;;;;;;26.48;9.13;;;;;;;9.65;46.81;102248.25;5014278;28;20022;-65
2023/01/26 09:57:26;;;;;;;30.40;9.57;;;;;;;9.74;46.28;102263.75;5015360;28;20037;-65
2023/01/26 09:59:57;;;;;;;32.55;9.82;;;;;;;9.77;47.09;102263.56;5017454;28;20042;-65
2023/01/26 10:02:37;;;;;;;33.28;9.63;;;;;;;9.81;47.50;102259.78;4997585;28;20041;-65
2023/01/26 10:05:28;;;;;;;29.25;8.85;;;;;;;9.86;47.29;102254.16;5013433;28;20091;-65
2023/01/26 10:07:54;;;;;;;28.90;8.65;;;;;;;9.89;47.28;102257.50;5014672;28;20042;-65
2023/01/26 10:10:27;;;;;;;24.55;8.23;;;;;;;9.92;46.68;102256.47;5013054;28;20061;-65
2023/01/26 10:12:54;;;;;;;29.98;7.97;;;;;;;9.96;47.07;102260.69;5013117;28;20478;-66
2023/01/26 10:15:20;;;;;;;32.58;9.55;;;;;;;9.99;46.92;102262.34;5014736;28;20021;-65
2023/01/26 10:17:46;;;;;;;41.83;10.45;;;;;;;9.94;47.57;102250.06;5012855;28;20557;-65
2023/01/26 10:20:14;;;;;;;28.67;8.55;;;;;;;9.98;47.45;102257.91;5012806;28;20034;-64
2023/01/26 10:22:53;;;;;;;31.67;9.50;;;;;;;9.97;47.38;102248.19;5013797;28;20069;-65
2023/01/26 10:25:25;;;;;;;20.98;7.53;;;;;;;9.95;47.67;102258.97;5012856;28;20049;-64
2023/01/26 10:27:51;;;;;;;24.85;9.15;;;;;;;9.95;47.09;102250.94;5012481;28;20044;-64
2023/01/26 10:30:18;;;;;;;25.23;8.23;;;;;;;9.94;47.37;102250.06;5014220;28;20080;-65
2023/01/26 10:32:45;;;;;;;25.20;9.07;;;;;;;9.94;47.62;102236.69;5013229;28;20045;-66
2023/01/26 10:35:16;;;;;;;25.73;7.82;;;;;;;9.94;47.40;102228.66;5013199;28;20038;-65
2023/01/26 10:37:42;;;;;;;20.92;7.63;;;;;;;10.04;47.49;102245.06;5013001;28;20129;-65
2023/01/26 10:40:08;;;;;;;25.55;8.18;;;;;;;10.06;47.03;102243.13;4997727;28;20474;-65
2023/01/26 10:42:34;;;;;;;22.92;7.18;;;;;;;10.09;47.36;102239.41;5012830;28;20096;-65
2023/01/26 10:45:22;;;;;;;19.83;6.28;;;;;;;10.10;47.23;102243.81;5015146;28;20482;-65
2023/01/26 10:48:06;;;;;;;26.30;7.55;;;;;;;10.11;47.52;102240.16;5013142;28;20107;-65
2023/01/26 10:50:32;;;;;;;16.65;6.28;;;;;;;10.11;47.48;102242.84;5013680;28;20038;-66
2023/01/26 10:53:02;;;;;;;22.98;7.03;;;;;;;10.11;47.48;102240.16;5014853;28;20048;-68
2023/01/26 10:55:29;;;;;;;20.90;7.40;;;;;;;10.14;47.43;102245.38;5015133;28;20091;-65
2023/01/26 10:57:54;;;;;;;23.33;6.40;;;;;;;10.15;47.50;102237.28;5014547;28;20053;-66
2023/01/26 11:00:20;;;;;;;20.40;6.63;;;;;;;10.17;47.15;102246.06;4997509;28;20512;-65
2023/01/26 11:03:13;;;;;;;17.67;6.70;;;;;;;10.18;47.13;102246.94;5015123;28;20045;-65
2023/01/26 11:05:38;;;;;;;15.13;6.25;;;;;;;10.21;47.25;102252.09;5014173;28;20044;-65
2023/01/26 11:08:32;;;;;;;22.13;6.93;;;;;;;10.21;47.46;102241.41;5013413;28;20087;-65
2023/01/26 11:10:57;;;;;;;15.93;5.57;;;;;;;10.28;47.26;102248.09;5014849;28;20046;-65
2023/01/26 11:13:22;;;;;;;17.60;5.68;;;;;;;10.28;47.31;102237.38;5014025;28;20062;-66
2023/01/26 11:16:07;;;;;;;21.15;6.47;;;;;;;10.32;47.34;102242.47;5014565;28;20398;-65
2023/01/26 11:18:43;;;;;;;14.70;4.95;;;;;;;10.35;47.37;102244.09;5015221;28;20029;-65
2023/01/26 11:21:35;;;;;;;16.10;4.97;;;;;;;10.37;47.56;102236.84;5015185;28;20041;-65
2023/01/26 11:24:25;;;;;;;16.65;4.88;;;;;;;10.40;48.20;102237.50;5011907;28;20034;-66
2023/01/26 11:27:26;;;;;;;13.27;4.60;;;;;;;10.44;47.40;102230.16;4995443;28;20124;-65
2023/01/26 11:30:10;;;;;;;16.77;4.95;;;;;;;10.45;47.16;102235.41;4998658;28;20046;-65
2023/01/26 11:33:14;;;;;;;13.07;4.55;;;;;;;10.47;47.31;102227.25;5017794;28;20033;-65
2023/01/26 11:35:53;;;;;;;14.43;4.82;;;;;;;10.42;47.83;102219.53;5015060;28;20034;-65
2023/01/26 11:38:39;;;;;;;15.38;5.68;;;;;;;10.49;47.81;102220.88;4998309;28;20030;-65
2023/01/26 11:41:45;;;;;;;11.80;5.13;;;;;;;10.52;47.67;102215.31;5018206;28;20037;-65
2023/01/26 11:44:34;;;;;;;13.23;5.50;;;;;;;10.51;47.56;102223.47;5018414;28;20034;-65
2023/01/26 11:47:21;;;;;;;13.00;5.10;;;;;;;10.51;47.58;102212.75;5002839;28;20115;-65
2023/01/26 11:49:56;;;;;;;10.15;4.03;;;;;;;10.51;47.60;102212.75;5018484;28;20038;-65
2023/01/26 11:52:50;;;;;;;12.20;4.63;;;;;;;10.48;47.62;102212.94;5021261;28;20034;-66
2023/01/26 11:55:27;;;;;;;15.35;4.45;;;;;;;10.44;47.29;102206.06;5018011;28;20038;-65
2023/01/26 11:58:16;;;;;;;10.93;5.53;;;;;;;10.49;47.51;102209.31;5019913;28;20038;-65
2023/01/26 12:00:51;;;;;;;10.55;4.63;;;;;;;10.52;48.06;102211.78;5015248;28;20029;-65
2023/01/26 12:03:43;;;;;;;16.02;5.57;;;;;;;10.54;47.86;102207.19;5003896;28;20092;-65
2023/01/26 12:06:36;;;;;;;15.63;5.28;;;;;;;10.57;47.71;102198.09;5019939;28;20050;-66
2023/01/26 12:09:08;;;;;;;13.50;5.38;;;;;;;10.59;47.83;102194.38;5020346;28;20050;-66
2023/01/26 12:11:38;;;;;;;10.93;4.72;;;;;;;10.56;47.97;102183.84;5020829;28;20045;-65